createdAt,value
2023-04-26T00:00:10.476Z,79.02
2023-04-26T00:02:38.696Z,79.08
2023-04-26T00:05:09.501Z,79.18
2023-04-26T00:07:39.057Z,79.27
2023-04-26T00:10:10.610Z,79.29
2023-04-26T00:12:41.180Z,79.37
2023-04-26T00:15:11.649Z,79.49
2023-04-26T00:17:39.852Z,79.47
2023-04-26T00:20:10.825Z,79.62
2023-04-26T00:22:40.852Z,79.69
2023-04-26T00:25:12.666Z,79.81
2023-04-26T00:27:40.982Z,79.96
2023-04-26T00:30:10.662Z,80.12
2023-04-26T00:32:39.527Z,80.25
2023-04-26T00:35:11.173Z,80.53
2023-04-26T00:37:40.049Z,80.69
2023-04-26T00:40:11.702Z,80.82
2023-04-26T00:42:41.496Z,80.91
2023-04-26T00:45:11.645Z,81.10
2023-04-26T00:47:39.978Z,81.29
2023-04-26T00:50:08.572Z,81.36
2023-04-26T00:52:36.865Z,81.63
2023-04-26T00:55:05.970Z,81.69
2023-04-26T00:57:35.961Z,81.73
2023-04-26T01:00:04.374Z,81.71
2023-04-26T01:02:32.886Z,81.86
2023-04-26T01:05:01.415Z,82.08
2023-04-26T01:07:29.506Z,82.11
2023-04-26T01:09:59.098Z,82.36
2023-04-26T01:12:30.488Z,82.39
2023-04-26T01:15:01.776Z,82.67
2023-04-26T01:17:30.160Z,83.04
2023-04-26T01:19:58.315Z,83.05
2023-04-26T01:22:26.456Z,83.21
2023-04-26T01:24:56.496Z,83.29
2023-04-26T01:27:25.021Z,83.49
2023-04-26T01:29:54.279Z,83.58
2023-04-26T01:32:23.171Z,83.80
2023-04-26T01:34:54.389Z,84.01
2023-04-26T01:37:25.049Z,84.00
2023-04-26T01:39:53.645Z,84.17
2023-04-26T01:42:26.566Z,84.12
2023-04-26T01:44:54.627Z,84.26
2023-04-26T01:47:22.866Z,84.36
2023-04-26T01:49:51.648Z,84.37
2023-04-26T01:52:19.668Z,84.41
2023-04-26T01:54:47.901Z,84.56
2023-04-26T01:57:16.040Z,84.75
2023-04-26T01:59:48.221Z,84.77
2023-04-26T02:02:18.608Z,84.91
2023-04-26T02:04:46.752Z,84.95
2023-04-26T02:07:15.962Z,84.93
2023-04-26T02:09:43.938Z,85.03
2023-04-26T02:12:12.437Z,85.11
2023-04-26T02:14:40.575Z,85.35
2023-04-26T02:17:17.764Z,85.25
2023-04-26T02:19:46.234Z,85.37
2023-04-26T02:22:14.310Z,85.57
2023-04-26T02:24:42.528Z,85.84
2023-04-26T02:27:11.041Z,85.70
2023-04-26T02:29:44.134Z,85.59
2023-04-26T02:32:15.290Z,85.65
2023-04-26T02:34:44.251Z,85.96
2023-04-26T02:37:13.132Z,85.92
2023-04-26T02:39:41.273Z,86.08
2023-04-26T02:42:10.559Z,86.28
2023-04-26T02:44:39.628Z,86.55
2023-04-26T02:47:08.814Z,86.67
2023-04-26T02:49:38.472Z,86.78
2023-04-26T02:52:10.855Z,86.89
2023-04-26T02:54:39.361Z,86.88
2023-04-26T02:57:08.403Z,86.95
2023-04-26T02:59:36.682Z,86.95
2023-04-26T03:02:06.246Z,87.01
2023-04-26T03:04:36.119Z,87.13
2023-04-26T03:07:06.230Z,87.27
2023-04-26T03:09:38.103Z,87.37
2023-04-26T03:12:13.732Z,87.46
2023-04-26T03:14:43.976Z,87.52
2023-04-26T03:17:12.514Z,87.66
2023-04-26T03:19:43.550Z,87.83
2023-04-26T03:22:17.198Z,87.82
2023-04-26T03:24:46.351Z,87.78
2023-04-26T03:27:14.383Z,87.92
2023-04-26T03:29:44.230Z,88.05
2023-04-26T03:32:22.322Z,88.03
2023-04-26T03:34:50.396Z,88.14
2023-04-26T03:37:27.466Z,88.11
2023-04-26T03:39:55.914Z,87.93
2023-04-26T03:42:24.366Z,88.10
2023-04-26T03:44:53.071Z,88.07
2023-04-26T03:47:21.198Z,88.15
2023-04-26T03:49:49.615Z,88.23
2023-04-26T03:52:18.361Z,88.71
2023-04-26T03:54:47.846Z,88.98
2023-04-26T03:57:18.587Z,88.87
2023-04-26T03:59:46.955Z,88.63
2023-04-26T04:02:15.073Z,88.48
2023-04-26T04:04:44.041Z,88.38
2023-04-26T04:07:13.382Z,88.30
2023-04-26T04:09:41.722Z,88.16
2023-04-26T04:12:11.384Z,88.06
2023-04-26T04:14:39.873Z,87.92
2023-04-26T04:17:09.592Z,87.72
2023-04-26T04:19:38.436Z,87.39
2023-04-26T04:22:07.067Z,86.95
2023-04-26T04:24:36.110Z,86.40
2023-04-26T04:27:04.303Z,85.73
2023-04-26T04:29:35.385Z,84.95
2023-04-26T04:32:05.250Z,84.19
2023-04-26T04:34:36.150Z,83.07
2023-04-26T04:37:06.701Z,81.96
2023-04-26T04:39:35.111Z,80.88
2023-04-26T04:42:04.129Z,79.75
2023-04-26T04:44:37.712Z,78.43
2023-04-26T04:47:06.504Z,76.93
2023-04-26T04:49:34.628Z,75.61
2023-04-26T04:52:02.675Z,74.32
2023-04-26T04:54:31.115Z,73.38
2023-04-26T04:56:59.460Z,72.61
2023-04-26T04:59:28.079Z,74.04
2023-04-26T05:01:58.762Z,73.93
2023-04-26T05:04:27.618Z,71.63
2023-04-26T05:06:55.797Z,70.61
2023-04-26T05:09:24.138Z,70.00
2023-04-26T05:11:52.363Z,69.33
2023-04-26T05:14:22.006Z,69.45
2023-04-26T05:16:50.412Z,67.98
2023-04-26T05:19:20.003Z,66.19
2023-04-26T05:21:48.050Z,65.31
2023-04-26T05:24:16.181Z,65.20
2023-04-26T05:26:44.431Z,64.79
2023-04-26T05:29:12.405Z,63.50
2023-04-26T05:31:41.033Z,64.90
2023-04-26T05:34:09.564Z,63.79
2023-04-26T05:36:38.989Z,62.60
2023-04-26T05:39:08.169Z,63.24
2023-04-26T05:41:37.573Z,62.30
2023-04-26T05:44:05.912Z,61.28
2023-04-26T05:46:34.165Z,60.51
2023-04-26T05:49:02.852Z,59.69
2023-04-26T05:51:31.448Z,58.48
2023-04-26T05:54:01.425Z,57.69
2023-04-26T05:56:32.486Z,56.73
2023-04-26T05:59:00.702Z,55.75
2023-04-26T06:01:30.977Z,55.31
2023-04-26T06:04:01.349Z,54.57
2023-04-26T06:06:29.814Z,54.90
2023-04-26T06:08:57.936Z,54.28
2023-04-26T06:11:29.640Z,53.82
2023-04-26T06:13:57.668Z,53.14
2023-04-26T06:16:26.131Z,53.00
2023-04-26T06:18:54.319Z,52.73
2023-04-26T06:21:25.344Z,52.56
2023-04-26T06:23:54.141Z,52.71
2023-04-26T06:26:22.732Z,52.05
2023-04-26T06:28:52.524Z,52.87
2023-04-26T06:31:21.887Z,52.13
2023-04-26T06:33:51.580Z,51.55
2023-04-26T06:36:20.327Z,51.40
2023-04-26T06:38:49.177Z,50.52
2023-04-26T06:41:18.177Z,50.55
2023-04-26T06:43:46.282Z,50.57
2023-04-26T06:46:16.270Z,49.85
2023-04-26T06:48:44.435Z,50.26
2023-04-26T06:51:12.856Z,49.45
2023-04-26T06:53:44.613Z,49.49
2023-04-26T06:56:12.993Z,49.56
2023-04-26T06:58:41.140Z,48.42
2023-04-26T07:01:12.852Z,49.63
2023-04-26T07:03:43.427Z,50.24
2023-04-26T07:06:12.361Z,51.42
2023-04-26T07:08:40.452Z,51.21
2023-04-26T07:11:11.424Z,53.29
2023-04-26T07:13:39.680Z,53.76
2023-04-26T07:16:07.983Z,54.37
2023-04-26T07:18:36.103Z,53.15
2023-04-26T07:21:08.143Z,53.67
2023-04-26T07:23:36.626Z,53.73
2023-04-26T07:26:04.891Z,53.79
2023-04-26T07:28:33.431Z,52.12
2023-04-26T07:31:01.899Z,51.57
2023-04-26T07:33:30.165Z,51.33
2023-04-26T07:35:59.794Z,51.44
2023-04-26T07:38:30.102Z,52.12
2023-04-26T07:41:00.944Z,51.80
2023-04-26T07:43:29.835Z,51.39
2023-04-26T07:46:01.437Z,53.03
2023-04-26T07:48:30.214Z,53.34
2023-04-26T07:50:59.266Z,54.49
2023-04-26T07:53:28.568Z,57.97
2023-04-26T07:55:56.947Z,58.43
2023-04-26T07:58:25.009Z,58.12
2023-04-26T08:00:55.126Z,58.58
2023-04-26T08:03:23.671Z,58.36
2023-04-26T08:05:51.971Z,60.31
2023-04-26T08:08:20.135Z,59.16
2023-04-26T08:10:49.821Z,58.79
2023-04-26T08:13:17.905Z,58.97
2023-04-26T08:15:46.391Z,58.22
2023-04-26T08:18:14.415Z,57.42
2023-04-26T08:20:42.834Z,57.88
2023-04-26T08:23:11.245Z,58.17
2023-04-26T08:25:41.036Z,56.71
2023-04-26T08:28:14.533Z,56.48
2023-04-26T08:30:42.652Z,55.10
2023-04-26T08:33:11.007Z,54.39
2023-04-26T08:35:39.162Z,53.57
2023-04-26T08:38:07.261Z,53.93
2023-04-26T08:40:35.950Z,54.03
2023-04-26T08:43:04.998Z,52.60
2023-04-26T08:45:36.711Z,49.98
2023-04-26T08:48:09.372Z,48.85
2023-04-26T08:50:37.943Z,49.69
2023-04-26T08:53:07.217Z,51.12
2023-04-26T08:55:37.146Z,51.56
2023-04-26T08:58:05.671Z,51.83
2023-04-26T09:00:35.822Z,53.12
2023-04-26T09:03:04.472Z,53.67
2023-04-26T09:05:32.956Z,54.84
2023-04-26T09:08:03.832Z,52.45
2023-04-26T09:10:32.516Z,51.30
2023-04-26T09:13:00.754Z,52.01
2023-04-26T09:15:29.510Z,51.32
2023-04-26T09:18:17.121Z,50.46
2023-04-26T09:20:46.352Z,50.94
2023-04-26T09:23:16.184Z,50.54
2023-04-26T09:25:45.876Z,52.35
2023-04-26T09:28:21.481Z,51.51
2023-04-26T09:30:50.261Z,50.56
2023-04-26T09:33:21.460Z,48.10
2023-04-26T09:35:49.959Z,48.34
2023-04-26T09:38:20.533Z,49.11
2023-04-26T09:40:49.920Z,46.46
2023-04-26T09:43:19.516Z,47.02
2023-04-26T09:45:50.731Z,45.30
2023-04-26T09:48:23.035Z,45.52
2023-04-26T09:50:54.762Z,44.11
2023-04-26T09:53:31.055Z,42.45
2023-04-26T09:56:11.645Z,42.49
2023-04-26T09:58:58.342Z,43.20
2023-04-26T10:01:29.880Z,43.50
2023-04-26T10:04:02.485Z,42.87
2023-04-26T10:06:32.846Z,43.23
2023-04-26T10:09:04.473Z,44.68
2023-04-26T10:11:33.240Z,43.52
2023-04-26T10:14:01.691Z,44.61
2023-04-26T10:16:31.249Z,45.32
2023-04-26T10:19:00.773Z,46.39
2023-04-26T10:21:31.988Z,45.67
2023-04-26T10:24:00.361Z,45.75
2023-04-26T10:26:52.185Z,44.06
2023-04-26T10:29:21.790Z,42.32
2023-04-26T10:32:16.706Z,40.71
2023-04-26T10:34:47.472Z,39.89
2023-04-26T10:37:17.320Z,41.81
2023-04-26T10:39:46.561Z,42.90
2023-04-26T10:42:26.550Z,44.34
2023-04-26T10:44:56.364Z,45.21
2023-04-26T10:47:38.749Z,46.06
2023-04-26T10:50:10.765Z,48.01
2023-04-26T10:52:41.172Z,50.36
2023-04-26T10:55:10.844Z,50.00
2023-04-26T10:57:49.418Z,49.93
2023-04-26T11:00:29.183Z,49.90
2023-04-26T11:03:04.377Z,50.22
2023-04-26T11:05:53.811Z,50.62
2023-04-26T11:08:26.845Z,50.04
2023-04-26T11:11:09.044Z,48.73
2023-04-26T11:13:41.641Z,49.46
2023-04-26T11:16:10.703Z,50.80
2023-04-26T11:18:42.047Z,50.87
2023-04-26T11:21:12.828Z,51.47
2023-04-26T11:23:42.269Z,51.95
2023-04-26T11:26:10.804Z,52.08
2023-04-26T11:28:41.189Z,51.12
2023-04-26T11:31:09.552Z,50.23
2023-04-26T11:33:38.057Z,50.23
2023-04-26T11:36:07.680Z,50.92
2023-04-26T11:38:39.044Z,51.54
2023-04-26T11:41:07.345Z,51.15
2023-04-26T11:43:36.709Z,50.95
2023-04-26T11:46:06.737Z,50.10
2023-04-26T11:48:37.261Z,49.89
2023-04-26T11:51:08.666Z,49.13
2023-04-26T11:53:38.803Z,53.41
2023-04-26T11:56:17.509Z,49.89
2023-04-26T11:58:47.375Z,47.52
2023-04-26T12:01:22.244Z,46.89
2023-04-26T12:03:54.854Z,47.22
2023-04-26T12:06:28.883Z,47.18
2023-04-26T12:08:58.951Z,48.66
2023-04-26T12:11:27.647Z,49.76
2023-04-26T12:13:58.979Z,50.39
2023-04-26T12:16:27.617Z,50.34
2023-04-26T12:18:56.887Z,50.67
2023-04-26T12:21:27.522Z,50.97
2023-04-26T12:23:59.403Z,49.57
2023-04-26T12:26:45.130Z,50.53
2023-04-26T12:29:14.216Z,48.95
2023-04-26T12:31:43.648Z,48.03
2023-04-26T12:34:11.720Z,48.89
2023-04-26T12:36:41.702Z,50.64
2023-04-26T12:39:13.787Z,49.33
2023-04-26T12:41:42.205Z,49.65
2023-04-26T12:44:10.580Z,49.48
2023-04-26T12:46:39.343Z,50.10
2023-04-26T12:49:14.237Z,50.12
2023-04-26T12:51:42.781Z,50.57
2023-04-26T12:54:12.281Z,51.25
2023-04-26T12:56:44.702Z,51.02
2023-04-26T12:59:13.130Z,52.02
2023-04-26T13:01:41.230Z,51.66
2023-04-26T13:04:10.362Z,51.80
2023-04-26T13:06:38.662Z,51.55
2023-04-26T13:09:07.949Z,48.80
2023-04-26T13:11:37.987Z,49.03
2023-04-26T13:14:06.853Z,46.66
2023-04-26T13:16:35.609Z,46.83
2023-04-26T13:19:08.394Z,46.32
2023-04-26T13:21:36.698Z,46.21
2023-04-26T13:24:06.735Z,46.00
2023-04-26T13:26:35.545Z,46.51
2023-04-26T13:29:07.782Z,46.49
2023-04-26T13:31:36.937Z,45.69
2023-04-26T13:34:06.474Z,46.10
2023-04-26T13:36:35.095Z,46.59
2023-04-26T13:39:07.427Z,46.82
2023-04-26T13:41:35.754Z,47.04
2023-04-26T13:44:05.771Z,48.49
2023-04-26T13:46:34.079Z,47.71
2023-04-26T13:49:02.475Z,47.63
2023-04-26T13:51:34.149Z,48.61
2023-04-26T13:54:02.434Z,48.67
2023-04-26T13:56:30.901Z,49.07
2023-04-26T13:59:01.728Z,49.02
2023-04-26T14:01:33.036Z,48.50
2023-04-26T14:04:01.765Z,48.24
2023-04-26T14:06:32.802Z,47.72
2023-04-26T14:09:02.183Z,48.64
2023-04-26T14:11:32.234Z,49.22
2023-04-26T14:14:00.809Z,49.46
2023-04-26T14:16:29.531Z,49.20
2023-04-26T14:18:59.481Z,49.18
2023-04-26T14:21:27.951Z,49.32
2023-04-26T14:23:59.482Z,49.17
2023-04-26T14:26:31.101Z,50.42
2023-04-26T14:28:59.356Z,50.31
2023-04-26T14:31:30.532Z,50.51
2023-04-26T14:34:01.525Z,50.01
2023-04-26T14:36:29.965Z,49.02
2023-04-26T14:39:02.437Z,49.00
2023-04-26T14:41:30.847Z,50.62
2023-04-26T14:43:59.210Z,50.41
2023-04-26T14:46:27.652Z,50.27
2023-04-26T14:48:56.396Z,48.67
2023-04-26T14:51:27.602Z,47.25
2023-04-26T14:53:57.281Z,46.86
2023-04-26T14:56:33.092Z,47.35
2023-04-26T14:59:04.296Z,47.13
2023-04-26T15:01:33.195Z,48.36
2023-04-26T15:04:01.807Z,47.73
2023-04-26T15:06:34.277Z,49.16
2023-04-26T15:09:02.561Z,47.79
2023-04-26T15:11:31.194Z,48.54
2023-04-26T15:13:59.584Z,48.11
2023-04-26T15:16:27.914Z,48.35
2023-04-26T15:18:56.158Z,49.11
2023-04-26T15:21:24.460Z,49.39
2023-04-26T15:23:56.266Z,49.75
2023-04-26T15:26:26.118Z,49.74
2023-04-26T15:28:55.902Z,49.92
2023-04-26T15:31:24.886Z,49.44
2023-04-26T15:33:56.425Z,50.81
2023-04-26T15:36:24.858Z,50.51
2023-04-26T15:38:53.171Z,50.00
2023-04-26T15:41:23.182Z,50.97
2023-04-26T15:43:54.970Z,51.09
2023-04-26T15:46:23.527Z,50.36
2023-04-26T15:48:51.969Z,49.41
2023-04-26T15:51:20.582Z,49.67
2023-04-26T15:53:48.902Z,50.16
2023-04-26T15:56:18.028Z,50.41
2023-04-26T15:58:48.532Z,51.12
2023-04-26T16:01:18.706Z,51.05
2023-04-26T16:03:47.813Z,51.49
2023-04-26T16:06:18.977Z,52.07
2023-04-26T16:08:47.793Z,52.22
2023-04-26T16:11:19.088Z,52.28
2023-04-26T16:13:52.169Z,51.43
2023-04-26T16:16:23.327Z,51.87
2023-04-26T16:18:53.651Z,51.84
2023-04-26T16:21:23.933Z,52.50
2023-04-26T16:23:53.018Z,52.76
2023-04-26T16:26:26.804Z,52.29
2023-04-26T16:29:29.291Z,52.67
2023-04-26T16:32:04.841Z,52.18
2023-04-26T16:34:54.944Z,52.37
2023-04-26T16:37:27.329Z,53.01
2023-04-26T16:39:58.617Z,52.91
2023-04-26T16:42:31.135Z,52.95
2023-04-26T16:45:01.956Z,53.10
2023-04-26T16:47:30.746Z,52.87
2023-04-26T16:49:59.512Z,53.50
2023-04-26T16:52:27.816Z,53.61
2023-04-26T16:54:57.978Z,52.53
2023-04-26T16:57:28.074Z,51.74
2023-04-26T16:59:58.974Z,52.46
2023-04-26T17:02:31.926Z,52.85
2023-04-26T17:05:03.271Z,53.57
2023-04-26T17:07:33.341Z,54.06
2023-04-26T17:10:04.724Z,53.92
2023-04-26T17:12:38.127Z,54.36
2023-04-26T17:18:39.928Z,55.03
2023-04-26T17:21:19.266Z,56.17
2023-04-26T17:26:53.604Z,56.36
2023-04-26T17:29:25.716Z,56.95
2023-04-26T17:31:59.319Z,57.04
2023-04-26T17:34:29.172Z,57.51
2023-04-26T17:36:59.901Z,57.74
2023-04-26T17:39:28.200Z,58.65
2023-04-26T17:41:59.752Z,58.71
2023-04-26T17:44:28.145Z,59.06
2023-04-26T17:46:57.887Z,59.63
2023-04-26T17:52:33.076Z,60.13
2023-04-26T17:55:02.249Z,60.52
2023-04-26T17:57:35.730Z,61.13
2023-04-26T18:00:06.926Z,61.26
2023-04-26T18:02:35.980Z,61.69
2023-04-26T18:05:04.756Z,61.85
2023-04-26T18:07:36.615Z,62.23
2023-04-26T18:10:09.130Z,62.37
2023-04-26T18:12:39.664Z,62.67
2023-04-26T18:15:17.023Z,62.46
2023-04-26T18:17:50.854Z,63.22
2023-04-26T18:20:20.132Z,63.47
2023-04-26T18:22:49.836Z,63.83
2023-04-26T18:25:18.273Z,63.76
2023-04-26T18:27:48.076Z,63.45
2023-04-26T18:30:18.397Z,63.35
2023-04-26T18:32:46.458Z,63.05
2023-04-26T18:35:14.853Z,63.29
2023-04-26T18:37:42.879Z,63.29
2023-04-26T18:40:13.586Z,63.34
2023-04-26T18:42:44.894Z,63.20
2023-04-26T18:45:14.768Z,63.46
2023-04-26T18:47:43.389Z,63.80
2023-04-26T18:50:12.101Z,63.76
2023-04-26T18:52:40.124Z,64.12
2023-04-26T18:55:09.252Z,64.22
2023-04-26T18:57:44.159Z,63.91
2023-04-26T19:00:14.207Z,63.88
2023-04-26T19:02:44.616Z,63.91
2023-04-26T19:05:13.954Z,63.72
2023-04-26T19:07:42.975Z,64.16
2023-04-26T19:10:12.347Z,64.09
2023-04-26T19:12:44.603Z,64.14
2023-04-26T19:15:13.115Z,64.04
2023-04-26T19:17:42.012Z,64.16
2023-04-26T19:20:15.050Z,64.09
2023-04-26T19:22:46.311Z,64.29
2023-04-26T19:25:15.542Z,64.40
2023-04-26T19:27:45.201Z,64.27
2023-04-26T19:30:14.379Z,64.88
2023-04-26T19:32:42.496Z,64.94
2023-04-26T19:35:10.923Z,65.53
2023-04-26T19:37:39.253Z,65.57
2023-04-26T19:40:10.250Z,65.70
2023-04-26T19:42:38.237Z,65.42
2023-04-26T19:45:10.345Z,65.34
2023-04-26T19:47:38.463Z,65.51
2023-04-26T19:50:09.301Z,65.60
2023-04-26T19:52:37.607Z,65.75
2023-04-26T19:55:07.105Z,65.80
2023-04-26T19:57:35.794Z,65.94
2023-04-26T20:00:08.123Z,65.75
2023-04-26T20:02:38.215Z,65.93
2023-04-26T20:05:07.250Z,65.99
2023-04-26T20:07:35.886Z,66.05
2023-04-26T20:10:07.114Z,66.24
2023-04-26T20:12:35.689Z,66.50
2023-04-26T20:15:04.056Z,66.24
2023-04-26T20:17:32.128Z,66.67
2023-04-26T20:20:02.515Z,66.58
2023-04-26T20:22:30.744Z,66.72
2023-04-26T20:24:59.283Z,66.69
2023-04-26T20:27:27.919Z,66.72
2023-04-26T20:29:56.456Z,66.72
2023-04-26T20:32:28.079Z,66.88
2023-04-26T20:34:59.303Z,67.06
2023-04-26T20:37:29.098Z,67.04
2023-04-26T20:39:57.711Z,67.41
2023-04-26T20:42:27.950Z,67.56
2023-04-26T20:47:26.148Z,67.59
2023-04-26T20:49:54.586Z,67.72
2023-04-26T20:52:25.686Z,67.96
2023-04-26T20:54:57.407Z,68.23
2023-04-26T20:57:25.979Z,68.46
2023-04-26T20:59:56.017Z,68.87
2023-04-26T21:02:24.392Z,69.30
2023-04-26T21:04:55.322Z,69.53
2023-04-26T21:07:24.042Z,69.81
2023-04-26T21:09:56.733Z,70.03
2023-04-26T21:12:24.981Z,70.11
2023-04-26T21:14:53.027Z,70.41
2023-04-26T21:17:23.284Z,70.38
2023-04-26T21:19:52.813Z,70.39
2023-04-26T21:22:22.428Z,70.17
2023-04-26T21:24:51.736Z,70.29
2023-04-26T21:27:21.704Z,70.35
2023-04-26T21:29:51.041Z,70.33
2023-04-26T21:32:19.011Z,70.34
2023-04-26T21:34:47.116Z,70.38
2023-04-26T21:37:16.651Z,69.89
2023-04-26T21:39:44.746Z,69.61
2023-04-26T21:42:14.431Z,69.35
2023-04-26T21:44:44.040Z,69.49
2023-04-26T21:47:12.385Z,69.53
2023-04-26T21:49:40.906Z,69.23
2023-04-26T21:52:09.294Z,69.30
2023-04-26T21:54:37.978Z,68.90
2023-04-26T21:57:06.986Z,68.87
2023-04-26T21:59:36.584Z,68.78
2023-04-26T22:02:06.923Z,68.66
2023-04-26T22:04:35.268Z,68.84
2023-04-26T22:07:03.337Z,68.95
2023-04-26T22:09:32.193Z,68.92
2023-04-26T22:12:00.664Z,68.93
2023-04-26T22:14:28.764Z,69.06
2023-04-26T22:16:58.155Z,69.11
2023-04-26T22:19:27.645Z,69.24
2023-04-26T22:21:59.022Z,69.26
2023-04-26T22:24:30.852Z,69.22
2023-04-26T22:26:59.404Z,69.31
2023-04-26T22:29:28.111Z,69.42
2023-04-26T22:31:57.506Z,69.61
2023-04-26T22:34:27.822Z,69.53
2023-04-26T22:37:01.210Z,69.65
2023-04-26T22:39:35.889Z,69.81
2023-04-26T22:42:05.832Z,70.05
2023-04-26T22:44:34.222Z,70.18
2023-04-26T22:47:02.807Z,69.71
2023-04-26T22:49:32.480Z,70.15
2023-04-26T22:52:11.706Z,70.31
2023-04-26T22:54:45.872Z,70.20
2023-04-26T22:57:18.246Z,70.40
2023-04-26T22:59:47.113Z,70.37
2023-04-26T23:02:16.476Z,70.49
2023-04-26T23:04:48.782Z,70.57
2023-04-26T23:07:17.243Z,70.40
2023-04-26T23:09:46.462Z,70.31
2023-04-26T23:12:18.490Z,70.34
2023-04-26T23:14:47.943Z,70.35
2023-04-26T23:17:16.233Z,70.64
2023-04-26T23:19:46.500Z,70.59
2023-04-26T23:22:15.663Z,70.37
2023-04-26T23:24:44.005Z,70.54
2023-04-26T23:27:12.358Z,70.44
2023-04-26T23:29:41.201Z,70.40
2023-04-26T23:32:10.652Z,70.60
2023-04-26T23:34:40.976Z,70.42
2023-04-26T23:37:11.158Z,70.47
2023-04-26T23:39:40.309Z,70.44
2023-04-26T23:42:10.840Z,70.47
2023-04-26T23:44:38.851Z,70.59
2023-04-26T23:47:08.437Z,70.80
2023-04-26T23:49:37.024Z,70.62
2023-04-26T23:52:05.408Z,70.78
2023-04-26T23:54:35.125Z,70.76
2023-04-26T23:57:06.902Z,70.89
2023-04-26T23:59:35.652Z,70.84
